Impacts TAF Board INFO
FOR SITUATIONAL AWARENESS. NOT TO BE USED FOR FLIGHT PLANNING PURPOSES.
IDs:

KSLC - Salt Lake City Intl, UT, US

Issued at 2050 UTC 21 Feb 2018
Updated at 2304 UTC 21 Feb 2018
Potential Impact None Slight Moderate High
Time2254Z 22/00Z 22/01Z 22/02Z 22/03Z 22/04Z 22/05Z 22/06Z 22/07Z 22/08Z 22/09Z 22/10Z 22/11Z 22/12Z>>
Type OBS PRVL PRVL PRVL PRVL PRVL PRVL PRVL PRVL PRVL PRVL PRVL PRVL PRVL
VIS 10 >6 >6 >6 >6 >6 >6 >6 >6 >6 >6 >6 >6 >6
CIG -- 120 120 120 120 120 120 120 120 120 120 120 120 120
Cover FEW BKN BKN BKN BKN BKN BKN BKN BKN BKN BKN BKN BKN BKN
FltCat VFR VFR VFR VFR VFR VFR VFR VFR VFR VFR VFR VFR VFR VFR
WX -- -- -- -- -- -- -- -- -- -- -- -- -- --
WDir 350 330 330 330 160 160 160 160 160 160 160 160 160 160
WSpd 6 8 8 8 6 6 6 6 6 6 6 6 6 6
WGst -- -- -- -- -- -- -- -- -- -- -- -- -- --

Raw TAF
KSLC 212050Z 2121/2224 33008KT P6SM SCT070 BKN120
  FM220300 16006KT P6SM SCT070 BKN120
  FM221700 16012KT P6SM SCT050 BKN090
  FM222000 19017G20KT P6SM SCT060 BKN090


Raw METAR
KSLC 212254Z 35006KT 10SM FEW080 FEW220 00/M11 A3010 RMK AO2 SLP216 T00001106
KSLC 212154Z 35007KT 10SM FEW080 FEW120 SCT220 00/M11 A3010 RMK AO2 SLP219 ACSL DSNT N AND SE AND NW T00001111
KSLC 212054Z 36007KT 10SM FEW080 FEW140 SCT170 BKN240 M01/M12 A3011 RMK AO2 SLP222 ACSL DSNT NW 60000 T10061117 58016

METAR Board
Radar Display
Forecast Discussion

FOR SITUATIONAL AWARENESS. NOT TO BE USED FOR FLIGHT PLANNING PURPOSES.